Time;durP1;ratioP1;P1;durP2;ratioP2;P2;SDS_P1;SDS_P2;PMS_P1;PMS_P2;Temp;Humidity;BMP_temperature;BMP_pressure;BME280_temperature;BME280_humidity;BME280_pressure;Samples;Min_cycle;Max_cycle;Signal;HPM_P1;HPM_P2
2022/07/15 00:00:16;;;;;;;19.20;8.48;;;;;;;14.62;86.08;94416.13;1661914;85;21139;-57
2022/07/15 00:02:45;;;;;;;12.95;7.58;;;;;;;14.57;86.20;94403.58;1663258;85;21287;-58
2022/07/15 00:05:13;;;;;;;14.78;7.83;;;;;;;14.56;86.25;94411.75;1675650;84;21067;-57
2022/07/15 00:07:42;;;;;;;15.23;8.03;;;;;;;14.51;86.28;94407.67;1669107;84;21012;-57
2022/07/15 00:10:22;;;;;;;14.38;7.20;;;;;;;14.48;86.66;94405.09;1664109;85;21014;-58
2022/07/15 00:12:53;;;;;;;12.18;7.25;;;;;;;14.49;86.87;94401.08;1666640;85;21023;-58
2022/07/15 00:15:24;;;;;;;20.62;7.67;;;;;;;14.48;86.86;94396.78;1682724;85;21248;-58
2022/07/15 00:17:53;;;;;;;23.45;8.13;;;;;;;14.46;87.09;94401.41;1669188;85;20960;-57
2022/07/15 00:20:21;;;;;;;11.20;7.22;;;;;;;14.44;87.13;94396.23;1684613;85;20987;-57
2022/07/15 00:22:49;;;;;;;14.70;7.00;;;;;;;14.41;87.05;94389.50;1679331;85;21145;-56
2022/07/15 00:25:17;;;;;;;19.70;6.92;;;;;;;14.34;86.86;94382.98;1665918;85;21071;-57
2022/07/15 00:28:03;;;;;;;9.10;5.87;;;;;;;14.33;86.73;94396.69;1655147;84;21050;-57
2022/07/15 00:30:33;;;;;;;8.63;6.67;;;;;;;14.28;86.52;94383.50;1681661;84;21435;-57
2022/07/15 00:33:01;;;;;;;12.50;6.85;;;;;;;14.23;86.50;94380.81;1680973;84;20990;-58
2022/07/15 00:35:30;;;;;;;9.70;6.42;;;;;;;14.16;86.45;94367.98;1663767;85;20988;-57
2022/07/15 00:37:58;;;;;;;13.20;6.67;;;;;;;14.12;86.85;94377.05;1676589;85;21065;-58
2022/07/15 00:40:26;;;;;;;13.60;6.60;;;;;;;14.13;86.91;94363.35;1661298;85;21155;-57
2022/07/15 00:42:55;;;;;;;13.88;6.92;;;;;;;14.14;86.95;94372.57;1663868;85;21179;-59
2022/07/15 00:45:24;;;;;;;10.35;6.17;;;;;;;14.18;87.07;94366.88;1657433;85;20979;-58
2022/07/15 00:47:56;;;;;;;11.75;7.05;;;;;;;14.18;87.39;94365.50;1661206;85;20995;-59
2022/07/15 00:50:27;;;;;;;7.12;5.75;;;;;;;14.13;87.45;94367.50;1661477;84;21118;-58
2022/07/15 00:53:08;;;;;;;8.98;5.78;;;;;;;14.09;87.56;94364.95;1668657;85;21778;-58
2022/07/15 00:55:41;;;;;;;13.43;6.55;;;;;;;14.12;87.49;94368.74;1669266;84;21455;-58
2022/07/15 00:58:11;;;;;;;11.70;6.22;;;;;;;14.13;87.29;94369.66;1656847;85;21000;-57
2022/07/15 01:00:41;;;;;;;16.80;6.90;;;;;;;14.11;87.22;94365.23;1661732;85;21016;-58
2022/07/15 01:03:09;;;;;;;11.28;6.33;;;;;;;14.08;87.13;94366.80;1665435;85;21042;-57
2022/07/15 01:05:37;;;;;;;11.93;5.92;;;;;;;14.03;87.35;94359.18;1661424;85;21133;-57
2022/07/15 01:08:06;;;;;;;12.78;6.00;;;;;;;14.08;87.34;94362.66;1660993;85;21010;-58
2022/07/15 01:10:35;;;;;;;10.88;5.85;;;;;;;14.07;87.21;94359.74;1677170;85;21062;-58
2022/07/15 01:13:05;;;;;;;14.75;6.55;;;;;;;14.06;87.14;94352.69;1660794;85;21092;-58
2022/07/15 01:15:33;;;;;;;11.08;6.75;;;;;;;14.04;86.83;94355.17;1659526;85;21096;-58
2022/07/15 01:18:03;;;;;;;11.63;6.12;;;;;;;13.99;86.94;94355.85;1666440;85;21304;-58
2022/07/15 01:20:31;;;;;;;10.35;6.08;;;;;;;14.00;87.06;94352.59;1633531;86;21130;-58
2022/07/15 01:23:01;;;;;;;9.95;6.55;;;;;;;14.04;87.26;94349.64;1664195;85;20967;-57
2022/07/15 01:25:32;;;;;;;9.45;5.60;;;;;;;14.04;87.68;94349.64;1656555;85;20963;-58
2022/07/15 01:28:03;;;;;;;10.38;6.28;;;;;;;14.06;87.97;94363.15;1677487;85;21038;-58
2022/07/15 01:30:32;;;;;;;12.90;5.95;;;;;;;14.03;87.77;94346.73;1659609;85;21151;-57
2022/07/15 01:33:00;;;;;;;8.58;5.47;;;;;;;13.96;87.43;94354.05;1664222;85;21419;-58
2022/07/15 01:35:28;;;;;;;8.58;5.50;;;;;;;13.91;87.47;94347.78;1665684;85;20973;-58
2022/07/15 01:37:56;;;;;;;10.10;5.90;;;;;;;13.87;87.41;94349.98;1676739;84;21093;-58
2022/07/15 01:40:25;;;;;;;11.43;6.40;;;;;;;13.83;87.61;94340.48;1668724;85;21168;-57
2022/07/15 01:42:54;;;;;;;8.55;6.10;;;;;;;13.82;87.73;94339.60;1646938;86;21164;-58
2022/07/15 01:45:23;;;;;;;12.10;6.47;;;;;;;13.82;87.51;94332.69;1671021;85;20972;-59
2022/07/15 01:47:52;;;;;;;9.78;5.67;;;;;;;13.78;87.36;94334.89;1670479;84;21007;-58
2022/07/15 01:50:23;;;;;;;6.87;5.97;;;;;;;13.78;87.34;94325.95;1672135;85;20962;-58
2022/07/15 01:52:56;;;;;;;9.88;6.17;;;;;;;13.81;87.32;94320.85;1662050;84;22556;-57
2022/07/15 01:55:24;;;;;;;12.25;6.67;;;;;;;13.83;87.30;94312.09;1666614;84;21066;-57
2022/07/15 01:57:55;;;;;;;13.00;6.03;;;;;;;13.83;87.33;94312.84;1651775;86;21048;-57
2022/07/15 02:00:24;;;;;;;11.28;5.92;;;;;;;13.82;87.42;94310.57;1658799;85;21593;-57
2022/07/15 02:02:52;;;;;;;7.33;5.62;;;;;;;13.85;87.27;94310.98;1682535;84;21011;-57
2022/07/15 02:05:23;;;;;;;13.85;5.75;;;;;;;13.86;86.93;94309.75;1656464;85;21046;-57
2022/07/15 02:07:54;;;;;;;8.43;5.65;;;;;;;13.81;86.90;94306.28;1656788;85;21778;-57
2022/07/15 02:10:22;;;;;;;9.90;5.87;;;;;;;13.81;86.89;94299.37;1669348;85;20963;-56
2022/07/15 02:12:52;;;;;;;12.18;5.22;;;;;;;13.78;87.13;94292.03;1684969;85;20979;-57
2022/07/15 02:15:23;;;;;;;9.58;5.35;;;;;;;13.76;87.40;94295.88;1665422;85;20974;-56
2022/07/15 02:17:53;;;;;;;7.62;5.20;;;;;;;13.72;87.42;94285.03;1659454;85;21058;-56
2022/07/15 02:20:23;;;;;;;12.13;5.90;;;;;;;13.70;87.73;94291.66;1678470;84;21146;-57
2022/07/15 02:22:51;;;;;;;9.00;5.83;;;;;;;13.67;87.84;94287.70;1669074;85;21446;-57
2022/07/15 02:25:19;;;;;;;10.98;5.80;;;;;;;13.60;87.72;94280.55;1660589;85;21510;-57
2022/07/15 02:27:47;;;;;;;6.35;5.72;;;;;;;13.56;88.00;94286.89;1668569;85;21011;-57
2022/07/15 02:30:16;;;;;;;9.63;4.72;;;;;;;13.56;88.05;94277.83;1655843;85;21138;-57
2022/07/15 02:32:45;;;;;;;7.67;5.70;;;;;;;13.56;87.93;94277.83;1661933;85;21475;-57
2022/07/15 02:35:14;;;;;;;9.13;5.28;;;;;;;13.53;88.12;94277.41;1676194;85;21007;-57
2022/07/15 02:37:44;;;;;;;9.63;6.20;;;;;;;13.51;88.56;94278.50;1659607;85;21592;-57
2022/07/15 02:40:12;;;;;;;7.45;5.47;;;;;;;13.49;88.92;94285.13;1661705;85;21074;-57
2022/07/15 02:42:42;;;;;;;10.68;5.83;;;;;;;13.48;88.90;94287.75;1662822;85;20982;-58
2022/07/15 02:45:11;;;;;;;7.47;5.58;;;;;;;13.48;88.94;94280.84;1657324;85;21518;-57
2022/07/15 02:47:39;;;;;;;8.88;6.12;;;;;;;13.49;88.55;94278.97;1672428;84;21203;-57
2022/07/15 02:50:08;;;;;;;10.08;5.28;;;;;;;13.48;88.17;94272.55;1664467;85;21067;-58
2022/07/15 02:52:36;;;;;;;9.55;5.67;;;;;;;13.44;88.29;94278.89;1677748;84;21490;-58
2022/07/15 02:55:07;;;;;;;9.45;5.12;;;;;;;13.43;88.18;94269.08;1658747;85;21062;-58
2022/07/15 02:57:36;;;;;;;8.00;5.15;;;;;;;13.43;88.06;94271.84;1679697;84;21419;-57
2022/07/15 03:00:06;;;;;;;8.20;5.10;;;;;;;13.45;88.22;94277.66;1676514;84;21007;-57
2022/07/15 03:02:34;;;;;;;6.45;5.28;;;;;;;13.47;88.15;94273.79;1685151;85;21066;-57
2022/07/15 03:05:05;;;;;;;14.13;6.60;;;;;;;13.47;87.95;94271.03;1668912;85;20968;-57
2022/07/15 03:07:33;;;;;;;19.73;8.90;;;;;;;13.44;88.06;94271.35;1661308;85;21167;-57
2022/07/15 03:10:03;;;;;;;20.60;7.78;;;;;;;13.45;88.52;94268.73;1664617;85;21522;-57
2022/07/15 03:12:33;;;;;;;13.48;7.95;;;;;;;13.47;88.47;94269.02;1661195;85;20978;-57
2022/07/15 03:15:03;;;;;;;17.45;8.53;;;;;;;13.41;88.36;94276.45;1669694;85;21003;-58
2022/07/15 03:17:33;;;;;;;14.10;7.60;;;;;;;13.35;88.74;94262.39;1666017;85;21098;-58
2022/07/15 03:20:05;;;;;;;13.30;7.17;;;;;;;13.35;89.10;94276.98;1661944;85;21560;-57
2022/07/15 03:22:34;;;;;;;11.83;7.20;;;;;;;13.38;88.96;94269.73;1660382;85;21725;-57
2022/07/15 03:25:04;;;;;;;13.08;6.40;;;;;;;13.36;88.88;94275.75;1682048;84;20907;-57
2022/07/15 03:27:33;;;;;;;17.62;7.67;;;;;;;13.29;88.89;94281.62;1659694;85;21432;-57
2022/07/15 03:30:03;;;;;;;12.13;6.58;;;;;;;13.28;89.51;94286.27;1684843;85;20982;-57
2022/07/15 03:32:31;;;;;;;10.82;6.15;;;;;;;13.30;89.60;94294.84;1667388;85;20982;-58
2022/07/15 03:34:59;;;;;;;8.98;5.92;;;;;;;13.30;89.59;94286.55;1674715;85;21130;-57
2022/07/15 03:37:29;;;;;;;11.50;7.65;;;;;;;13.35;89.91;94298.31;1665166;85;20967;-57
2022/07/15 03:39:58;;;;;;;17.95;7.40;;;;;;;13.35;89.77;94292.78;1663769;85;20975;-58
2022/07/15 03:42:27;;;;;;;12.03;7.53;;;;;;;13.37;90.11;94301.36;1662472;85;21461;-57
2022/07/15 03:44:54;;;;;;;10.72;7.15;;;;;;;13.44;90.06;94314.81;1668370;84;21054;-57
2022/07/15 03:47:23;;;;;;;14.40;6.67;;;;;;;13.50;89.96;94301.84;1672580;84;21158;-58
2022/07/15 03:49:54;;;;;;;9.53;6.12;;;;;;;13.59;90.16;94299.75;1663033;85;21010;-58
2022/07/15 03:52:22;;;;;;;10.03;6.80;;;;;;;13.67;90.04;94302.90;1664072;85;21011;-57
2022/07/15 03:54:50;;;;;;;10.82;6.97;;;;;;;13.71;89.88;94312.53;1667929;85;21036;-57
2022/07/15 03:57:18;;;;;;;14.35;7.05;;;;;;;13.77;89.84;94316.75;1675252;85;21077;-56
2022/07/15 03:59:48;;;;;;;15.08;6.12;;;;;;;13.88;89.92;94308.65;1668086;85;21905;-56
2022/07/15 04:02:17;;;;;;;9.03;6.45;;;;;;;13.97;89.60;94309.94;1666721;85;21019;-57
2022/07/15 04:04:46;;;;;;;11.85;6.55;;;;;;;14.05;89.20;94307.69;1668367;85;21122;-58
2022/07/15 04:07:14;;;;;;;7.62;6.30;;;;;;;14.09;88.77;94310.23;1663701;85;21055;-57
2022/07/15 04:09:42;;;;;;;9.55;5.75;;;;;;;14.09;88.26;94306.86;1655051;85;21470;-57
2022/07/15 04:12:11;;;;;;;15.40;6.33;;;;;;;14.11;88.06;94307.14;1666372;85;21209;-56
2022/07/15 04:14:41;;;;;;;12.88;6.20;;;;;;;14.20;87.95;94310.44;1657971;85;20970;-57
2022/07/15 04:17:09;;;;;;;10.25;7.10;;;;;;;14.28;87.62;94308.18;1671009;85;21474;-58
2022/07/15 04:19:39;;;;;;;10.40;6.12;;;;;;;14.37;87.28;94310.81;1668089;85;20999;-58
2022/07/15 04:22:07;;;;;;;13.18;6.08;;;;;;;14.42;87.08;94301.07;1664914;85;21017;-58
2022/07/15 04:24:38;;;;;;;10.45;5.17;;;;;;;14.51;86.80;94305.25;1664631;84;21409;-58
2022/07/15 04:27:08;;;;;;;5.62;4.70;;;;;;;14.65;86.33;94305.80;1667363;85;20986;-58
2022/07/15 04:29:38;;;;;;;10.48;5.55;;;;;;;14.75;85.87;94309.19;1676626;85;20999;-57
2022/07/15 04:32:07;;;;;;;10.32;5.47;;;;;;;14.83;85.85;94312.45;1679778;85;21070;-55
2022/07/15 04:34:39;;;;;;;8.70;5.08;;;;;;;15.01;85.52;94301.73;1665104;85;20959;-56
2022/07/15 04:37:07;;;;;;;9.25;5.50;;;;;;;15.18;84.83;94308.97;1669659;85;21225;-59
2022/07/15 04:39:37;;;;;;;11.08;5.50;;;;;;;15.34;84.38;94309.06;1662739;85;21508;-53
2022/07/15 04:42:05;;;;;;;7.53;5.92;;;;;;;15.46;83.69;94307.30;1675017;85;21010;-55
2022/07/15 04:44:35;;;;;;;10.03;5.92;;;;;;;15.57;83.12;94306.01;1660374;84;20995;-53
2022/07/15 04:47:03;;;;;;;7.78;5.85;;;;;;;15.67;82.93;94301.83;1668300;85;20979;-57
2022/07/15 04:52:20;;;;;;;7.53;5.28;;;;;;;16.05;82.06;94297.85;1666582;85;20975;-57
2022/07/15 04:54:49;;;;;;;8.68;4.70;;;;;;;16.25;81.33;94305.45;1669650;85;21077;-57
2022/07/15 04:57:18;;;;;;;11.95;6.00;;;;;;;16.39;80.60;94303.20;1666048;85;21007;-58
2022/07/15 04:59:47;;;;;;;9.80;5.33;;;;;;;16.48;79.57;94312.70;1664525;85;21400;-57
2022/07/15 05:02:18;;;;;;;14.53;6.50;;;;;;;16.51;78.96;94306.19;1655749;85;21244;-58
2022/07/15 05:04:47;;;;;;;17.32;5.65;;;;;;;16.53;78.79;94308.58;1661717;85;21012;-56
2022/07/15 05:07:14;;;;;;;9.00;4.50;;;;;;;16.64;78.66;94305.88;1664404;85;21016;-56
2022/07/15 05:09:45;;;;;;;8.60;5.45;;;;;;;16.83;77.40;94306.99;1662045;85;20994;-56
2022/07/15 05:12:14;;;;;;;10.35;5.45;;;;;;;17.02;76.59;94305.93;1660753;85;21555;-57
2022/07/15 05:14:51;;;;;;;11.90;5.12;;;;;;;17.22;76.21;94311.31;1656836;85;21078;-56
2022/07/15 05:17:20;;;;;;;9.88;5.47;;;;;;;17.46;75.28;94302.70;1656539;84;21007;-56
2022/07/15 05:19:49;;;;;;;12.95;5.50;;;;;;;17.64;74.53;94290.36;1660094;85;21113;-56
2022/07/15 05:22:19;;;;;;;9.00;4.87;;;;;;;17.78;74.07;94292.91;1674259;85;21007;-57
2022/07/15 05:24:48;;;;;;;12.20;5.05;;;;;;;17.96;73.38;94291.64;1671413;85;21015;-57
2022/07/15 05:27:16;;;;;;;16.32;6.35;;;;;;;18.17;72.73;94285.97;1650549;85;21549;-57
2022/07/15 05:29:47;;;;;;;12.78;4.90;;;;;;;18.33;72.34;94285.36;1662832;85;21023;-57
2022/07/15 05:32:15;;;;;;;4.95;4.10;;;;;;;18.49;71.69;94287.98;1661478;85;21027;-58
2022/07/15 05:34:45;;;;;;;10.70;4.22;;;;;;;18.66;71.06;94283.89;1672768;85;21013;-56
2022/07/15 05:37:16;;;;;;;19.73;5.92;;;;;;;18.80;70.69;94287.03;1667124;84;21043;-57
2022/07/15 05:39:53;;;;;;;12.33;4.87;;;;;;;18.92;70.22;94283.57;1651390;85;21121;-58
2022/07/15 05:42:25;;;;;;;12.20;4.70;;;;;;;19.03;70.37;94280.10;1662917;84;21023;-57
2022/07/15 05:44:52;;;;;;;10.53;4.33;;;;;;;19.15;70.52;94281.59;1662440;85;21082;-57
2022/07/15 05:47:22;;;;;;;7.37;4.50;;;;;;;19.25;70.02;94282.08;1660472;83;21032;-58
2022/07/15 05:49:51;;;;;;;10.43;4.92;;;;;;;19.30;69.36;94289.03;1656033;84;21053;-58
2022/07/15 05:52:18;;;;;;;6.22;3.90;;;;;;;19.28;68.94;94287.40;1661834;84;21234;-58
2022/07/15 05:54:49;;;;;;;9.35;4.60;;;;;;;19.28;68.86;94290.19;1651216;85;21494;-57
2022/07/15 05:57:17;;;;;;;8.33;4.12;;;;;;;19.30;69.25;94294.61;1666562;83;21102;-57
2022/07/15 05:59:45;;;;;;;6.60;4.58;;;;;;;19.32;69.87;94300.44;1654544;83;21027;-57
2022/07/15 06:02:13;;;;;;;10.35;4.72;;;;;;;19.32;69.87;94292.06;1650866;83;21119;-58
2022/07/15 06:04:41;;;;;;;7.60;5.10;;;;;;;19.33;69.84;94281.03;1653361;84;21196;-56
2022/07/15 06:07:10;;;;;;;9.75;4.22;;;;;;;19.38;69.78;94276.05;1670140;84;21254;-61
2022/07/15 06:09:38;;;;;;;11.03;4.87;;;;;;;19.41;70.00;94288.22;1652194;85;21139;-60
2022/07/15 06:12:09;;;;;;;11.15;5.17;;;;;;;19.36;69.87;94285.57;1645327;84;21164;-59
2022/07/15 06:14:38;;;;;;;10.25;5.15;;;;;;;19.34;69.87;94288.12;1635822;84;21227;-61
2022/07/15 06:17:07;;;;;;;6.00;4.53;;;;;;;19.35;69.83;94281.27;1667264;83;22144;-65
2022/07/15 06:19:36;;;;;;;15.13;5.35;;;;;;;19.37;70.06;94281.50;1655375;84;21111;-58
2022/07/15 06:22:04;;;;;;;23.22;6.05;;;;;;;19.40;70.58;94282.52;1642783;84;21085;-58
2022/07/15 06:24:33;;;;;;;14.35;5.28;;;;;;;19.42;70.39;94280.74;1659509;84;21098;-57
2022/07/15 06:27:01;;;;;;;19.50;6.55;;;;;;;19.44;70.09;94278.19;1631361;85;20991;-57
2022/07/15 06:29:29;;;;;;;25.80;13.32;;;;;;;19.44;69.89;94267.03;1631791;84;21248;-58
2022/07/15 06:31:58;;;;;;;13.25;7.45;;;;;;;19.48;69.94;94275.11;1649930;84;21118;-58
2022/07/15 06:34:25;;;;;;;8.78;6.47;;;;;;;19.49;70.71;94270.42;1661116;84;21125;-59
2022/07/15 06:36:53;;;;;;;22.55;9.20;;;;;;;19.49;71.17;94270.42;1649315;85;21084;-57
2022/07/15 06:39:22;;;;;;;29.00;17.62;;;;;;;19.51;70.80;94273.45;1656581;84;21023;-59
2022/07/15 06:41:50;;;;;;;25.08;8.50;;;;;;;19.52;70.41;94286.78;1602136;83;21846;-60
2022/07/15 06:44:18;;;;;;;25.82;9.70;;;;;;;19.51;70.14;94271.28;1648975;85;21050;-62
2022/07/15 06:46:48;;;;;;;35.33;9.20;;;;;;;19.49;70.61;94288.56;1650984;84;21581;-61
2022/07/15 06:49:21;;;;;;;33.30;10.75;;;;;;;19.47;70.63;94285.52;1646272;85;21083;-59
2022/07/15 06:51:52;;;;;;;33.88;8.43;;;;;;;19.41;70.80;94290.36;1628745;85;21089;-58
2022/07/15 06:54:20;;;;;;;26.70;7.70;;;;;;;19.37;70.87;94296.11;1621880;85;21191;-58
2022/07/15 06:56:49;;;;;;;27.87;8.23;;;;;;;19.37;71.18;94294.72;1653724;84;21170;-59
2022/07/15 06:59:17;;;;;;;23.40;7.30;;;;;;;19.37;71.50;94293.31;1650148;84;21069;-62
2022/07/15 07:01:46;;;;;;;24.87;7.17;;;;;;;19.43;71.49;94301.79;1659889;84;21085;-63
2022/07/15 07:04:15;;;;;;;13.58;6.97;;;;;;;19.49;71.66;94308.71;1638899;84;21179;-63
2022/07/15 07:06:43;;;;;;;21.17;7.33;;;;;;;19.57;71.79;94317.42;1632221;84;21258;-61
2022/07/15 07:09:11;;;;;;;17.82;7.60;;;;;;;19.66;72.00;94317.76;1660072;84;21137;-59
2022/07/15 07:11:41;;;;;;;17.37;9.08;;;;;;;19.71;71.73;94314.94;1657466;84;21052;-60
2022/07/15 07:14:10;;;;;;;30.95;14.83;;;;;;;19.73;72.56;94317.97;1655318;84;21147;-58
2022/07/15 07:16:41;;;;;;;57.48;24.23;;;;;;;19.81;72.54;94311.98;1647077;84;21141;-59
2022/07/15 07:19:09;;;;;;;66.10;28.17;;;;;;;19.96;72.47;94319.34;1653084;85;21261;-59
2022/07/15 07:21:39;;;;;;;49.98;21.35;;;;;;;20.09;70.85;94339.75;1657427;84;21495;-59
2022/07/15 07:24:10;;;;;;;74.20;21.48;;;;;;;20.16;69.75;94335.77;1663610;84;21241;-59
2022/07/15 07:26:37;;;;;;;54.90;19.40;;;;;;;20.16;70.06;94352.52;1660672;83;21073;-62
2022/07/15 07:29:05;;;;;;;45.63;14.10;;;;;;;20.18;70.21;94354.16;1648537;84;21082;-63
2022/07/15 07:31:34;;;;;;;54.30;18.32;;;;;;;20.21;70.41;94357.30;1643830;84;22471;-61
2022/07/15 07:34:05;;;;;;;30.45;10.50;;;;;;;20.25;70.58;94351.56;1626525;84;21026;-64
2022/07/15 07:36:33;;;;;;;17.30;7.80;;;;;;;20.34;70.47;94368.00;1654320;83;21129;-64
2022/07/15 07:39:02;;;;;;;15.15;6.20;;;;;;;20.44;70.08;94374.02;1658018;83;21494;-60
2022/07/15 07:41:30;;;;;;;18.10;5.50;;;;;;;20.55;69.84;94380.94;1658746;84;21107;-64
2022/07/15 07:43:57;;;;;;;16.42;5.35;;;;;;;20.63;69.51;94388.86;1661642;84;21236;-65
2022/07/15 07:46:25;;;;;;;21.87;6.37;;;;;;;20.71;69.32;94398.22;1663717;84;21013;-60
2022/07/15 07:48:53;;;;;;;21.87;5.58;;;;;;;20.77;69.19;94412.90;1645640;84;21623;-60
2022/07/15 07:51:21;;;;;;;26.25;8.10;;;;;;;20.79;69.22;94419.50;1657524;84;21072;-60
2022/07/15 07:53:49;;;;;;;20.88;5.97;;;;;;;20.82;69.44;94417.68;1656871;85;21108;-60
2022/07/15 07:56:18;;;;;;;20.68;6.25;;;;;;;20.83;69.30;94417.20;1647855;85;21152;-64
2022/07/15 07:58:45;;;;;;;13.10;4.85;;;;;;;20.85;69.64;94424.42;1629795;85;21088;-64
2022/07/15 08:01:15;;;;;;;19.77;5.72;;;;;;;20.86;70.05;94423.14;1603724;86;32567;-60
2022/07/15 08:03:45;;;;;;;23.10;5.97;;;;;;;20.83;70.34;94414.41;1604085;86;21117;-59
2022/07/15 08:06:13;;;;;;;22.27;6.47;;;;;;;20.83;70.74;94412.20;1594784;87;21100;-59
2022/07/15 08:08:44;;;;;;;11.60;5.12;;;;;;;20.85;71.40;94396.46;1606640;86;21415;-59
2022/07/15 08:11:12;;;;;;;17.27;6.65;;;;;;;20.88;72.17;94382.05;1606548;86;21078;-59
2022/07/15 08:13:40;;;;;;;20.60;6.25;;;;;;;20.92;72.85;94362.97;1600957;88;21206;-61
2022/07/15 08:16:08;;;;;;;15.58;7.00;;;;;;;20.91;73.50;94353.06;1613207;88;21119;-63
2022/07/15 08:18:41;;;;;;;12.50;6.80;;;;;;;20.92;74.11;94343.39;1597534;88;21202;-63
2022/07/15 08:21:12;;;;;;;15.35;6.17;;;;;;;20.93;74.13;94362.43;1602550;87;21562;-64
2022/07/15 08:23:40;;;;;;;18.42;6.33;;;;;;;20.92;74.86;94353.18;1599900;87;21011;-63
2022/07/15 08:26:11;;;;;;;14.07;6.50;;;;;;;20.94;74.67;94343.63;1611791;88;21169;-64
2022/07/15 08:28:38;;;;;;;16.65;7.20;;;;;;;21.04;74.34;94336.38;1604702;87;21335;-61
2022/07/15 08:31:07;;;;;;;17.27;6.33;;;;;;;21.14;75.20;94345.95;1612259;87;21066;-63
2022/07/15 08:33:36;;;;;;;9.98;5.17;;;;;;;21.26;76.08;94366.29;1619247;87;21268;-61
2022/07/15 08:36:05;;;;;;;13.45;6.60;;;;;;;21.38;76.06;94369.09;1620626;86;21054;-62
2022/07/15 08:38:33;;;;;;;10.90;5.30;;;;;;;21.53;75.60;94368.03;1595891;86;21258;-63
2022/07/15 08:41:01;;;;;;;8.48;4.97;;;;;;;21.72;75.28;94371.64;1604306;86;21601;-57
2022/07/15 08:43:29;;;;;;;16.40;5.20;;;;;;;21.89;74.73;94369.39;1605123;86;21994;-61
2022/07/15 08:45:58;;;;;;;6.60;3.45;;;;;;;22.03;73.36;94367.52;1617584;87;21231;-60
2022/07/15 08:48:29;;;;;;;4.00;3.33;;;;;;;22.20;69.37;94374.28;1600064;87;21518;-59
2022/07/15 08:50:57;;;;;;;7.72;4.00;;;;;;;22.39;65.84;94380.03;1615799;86;21042;-58
2022/07/15 08:53:27;;;;;;;10.40;5.42;;;;;;;22.54;66.00;94378.91;1613345;86;21049;-61
2022/07/15 08:55:55;;;;;;;9.33;4.30;;;;;;;22.60;66.08;94377.39;1609762;87;21218;-62
2022/07/15 08:58:23;;;;;;;11.70;4.33;;;;;;;22.68;63.91;94381.11;1592742;87;21273;-61
2022/07/15 09:00:52;;;;;;;7.85;3.55;;;;;;;22.75;64.54;94389.66;1614140;86;21387;-61
2022/07/15 09:03:19;;;;;;;7.42;3.47;;;;;;;22.80;63.10;94381.79;1612569;84;21039;-65
2022/07/15 09:05:47;;;;;;;7.10;3.00;;;;;;;22.87;62.57;94381.16;1620047;87;21143;-61
2022/07/15 09:08:19;;;;;;;7.67;3.50;;;;;;;22.93;60.30;94389.48;1611576;86;21968;-60
2022/07/15 09:10:53;;;;;;;5.92;3.47;;;;;;;22.97;61.42;94386.48;1619166;87;21476;-62
2022/07/15 09:13:39;;;;;;;8.78;3.10;;;;;;;23.00;61.01;94382.59;1611906;88;21143;-60
2022/07/15 09:16:10;;;;;;;4.90;3.20;;;;;;;23.04;61.01;94383.03;1609093;87;21096;-61
2022/07/15 09:18:41;;;;;;;29.57;12.23;;;;;;;23.08;60.24;94389.10;1608817;88;22210;-60
2022/07/15 09:21:27;;;;;;;6.80;3.52;;;;;;;23.11;59.30;94387.25;1615179;86;22129;-59
2022/07/15 09:23:55;;;;;;;24.55;4.90;;;;;;;23.14;58.34;94381.36;1610539;86;21583;-58
2022/07/15 09:26:28;;;;;;;6.35;2.95;;;;;;;23.21;57.84;94386.98;1647007;85;21743;-60
2022/07/15 09:33:34;;;;;;;13.80;3.90;;;;;;;23.29;57.18;94387.22;1636875;86;21201;-63
2022/07/15 09:34:37;;;;;;;5.80;2.58;;;;;;;23.50;56.75;94381.70;1659575;84;21030;-61
2022/07/15 09:37:06;;;;;;;15.48;3.72;;;;;;;23.60;57.80;94382.80;1648065;83;21826;-59
2022/07/15 09:39:35;;;;;;;8.70;2.37;;;;;;;23.67;56.47;94378.70;1650396;84;21176;-58
2022/07/15 09:42:10;;;;;;;10.32;2.90;;;;;;;23.73;55.47;94376.52;1632291;84;21056;-58
2022/07/15 09:44:36;;;;;;;7.92;2.60;;;;;;;23.79;54.96;94381.38;1674182;83;21203;-58
2022/07/15 09:47:05;;;;;;;4.37;2.08;;;;;;;23.79;54.82;94372.20;1650950;84;21023;-60
2022/07/15 09:49:35;;;;;;;4.17;2.47;;;;;;;23.80;54.26;94371.67;1637404;85;22374;-60
2022/07/15 09:52:07;;;;;;;5.78;2.58;;;;;;;23.84;53.96;94365.73;1649093;84;22239;-59
2022/07/15 09:54:43;;;;;;;6.40;2.02;;;;;;;24.02;53.93;94364.20;1651099;83;21053;-59
2022/07/15 09:57:18;;;;;;;7.85;1.90;;;;;;;24.20;52.93;94364.70;1653273;85;21074;-59
2022/07/15 09:59:45;;;;;;;8.90;2.17;;;;;;;24.33;52.35;94353.39;1665174;84;21112;-60
2022/07/15 10:02:14;;;;;;;3.77;2.40;;;;;;;24.47;52.33;94345.02;1647477;84;22333;-59
2022/07/15 10:04:43;;;;;;;4.03;1.90;;;;;;;24.62;51.01;94340.98;1657456;83;21558;-61
2022/07/15 10:07:11;;;;;;;4.95;2.02;;;;;;;24.72;50.48;94327.95;1658448;84;22200;-59
2022/07/15 10:09:41;;;;;;;6.47;1.85;;;;;;;24.84;51.45;94323.55;1658235;84;22292;-59
2022/07/15 10:12:18;;;;;;;3.70;1.60;;;;;;;24.98;50.21;94322.91;1654817;84;21589;-62
2022/07/15 10:15:23;;;;;;;1.95;1.72;;;;;;;25.16;48.90;94321.17;1613353;85;21213;-62
2022/07/15 10:18:21;;;;;;;3.35;1.52;;;;;;;25.42;47.23;94328.04;1638549;85;21076;-66
2022/07/15 10:21:24;;;;;;;4.22;1.70;;;;;;;25.75;45.25;94334.16;1666886;84;21037;-60
2022/07/15 10:24:03;;;;;;;4.30;1.50;;;;;;;25.96;45.23;94341.99;1656201;84;21072;-60
2022/07/15 10:27:07;;;;;;;2.02;1.50;;;;;;;26.06;43.93;94347.22;1647110;84;21145;-59
2022/07/15 10:29:36;;;;;;;3.25;1.40;;;;;;;26.04;42.82;94362.53;1659359;84;21195;-62
2022/07/15 10:32:05;;;;;;;2.90;1.57;;;;;;;25.93;43.11;94362.75;1670430;84;21079;-60
2022/07/15 10:34:34;;;;;;;4.17;1.30;;;;;;;25.83;43.94;94359.66;1657514;83;21510;-59
2022/07/15 10:37:07;;;;;;;5.40;1.98;;;;;;;25.84;44.62;94347.75;1659784;84;21463;-60
2022/07/15 10:39:57;;;;;;;4.92;1.95;;;;;;;25.97;43.92;94351.22;1652024;85;21252;-60
2022/07/15 10:42:25;;;;;;;7.58;2.35;;;;;;;26.22;44.28;94353.02;1662134;85;21219;-60
2022/07/15 10:45:04;;;;;;;3.72;1.70;;;;;;;26.44;44.05;94362.85;1637672;84;21471;-59
2022/07/15 10:47:32;;;;;;;5.20;1.82;;;;;;;26.58;42.81;94356.55;1650783;85;21531;-61
2022/07/15 10:50:06;;;;;;;3.67;1.70;;;;;;;26.84;42.02;94360.44;1669086;84;21375;-64
2022/07/15 10:52:34;;;;;;;2.40;1.40;;;;;;;27.26;42.28;94361.62;1646404;84;21038;-61
2022/07/15 10:55:05;;;;;;;2.55;1.60;;;;;;;27.80;39.91;94368.09;1653650;84;21422;-60
2022/07/15 10:57:49;;;;;;;3.70;1.20;;;;;;;27.91;39.23;94364.87;1652901;85;21542;-60
2022/07/15 11:00:32;;;;;;;4.50;1.27;;;;;;;28.19;39.15;94367.44;1659631;84;21114;-61
2022/07/15 11:03:17;;;;;;;2.67;1.27;;;;;;;28.45;36.89;94369.80;1627135;86;21109;-60
2022/07/15 11:06:01;;;;;;;4.80;1.30;;;;;;;28.68;36.79;94361.28;1652751;85;21029;-62
2022/07/15 11:08:48;;;;;;;8.45;1.90;;;;;;;28.84;36.83;94368.36;1658663;85;22041;-64
2022/07/15 11:11:21;;;;;;;3.27;1.60;;;;;;;28.54;36.46;94367.11;1656582;84;21505;-61
2022/07/15 11:13:49;;;;;;;4.22;1.50;;;;;;;28.56;36.36;94362.30;1603293;87;21665;-60
2022/07/15 11:16:20;;;;;;;8.93;1.25;;;;;;;28.51;37.68;94354.11;1671598;83;21097;-58
2022/07/15 11:18:53;;;;;;;6.28;1.10;;;;;;;28.87;36.58;94355.88;1657307;84;21021;-61
2022/07/15 11:21:20;;;;;;;;;;;;;;;29.24;35.71;94355.53;1660517;84;21230;-59
2022/07/15 11:23:49;;;;;;;1.45;1.20;;;;;;;29.70;35.16;94343.92;1649054;85;20285;-60
2022/07/15 11:26:19;;;;;;;4.60;1.62;;;;;;;30.14;34.36;94347.70;1653059;84;21003;-55
2022/07/15 11:28:51;;;;;;;1.85;1.40;;;;;;;30.60;33.74;94344.42;1661598;84;21074;-61
2022/07/15 11:31:19;;;;;;;4.33;1.17;;;;;;;30.94;32.68;94348.59;1649790;84;21101;-62
2022/07/15 11:33:49;;;;;;;4.55;1.25;;;;;;;31.03;31.26;94345.03;1654957;84;21244;-67
2022/07/15 11:36:21;;;;;;;5.60;1.30;;;;;;;31.02;30.74;94346.37;1650398;84;21025;-61
2022/07/15 11:38:50;;;;;;;3.33;1.10;;;;;;;31.01;30.96;94351.25;1649687;85;21119;-64
2022/07/15 11:46:54;;;;;;;2.83;0.82;;;;;;;31.74;29.32;94349.23;1664131;85;21175;-66
2022/07/15 11:49:36;;;;;;;1.85;1.40;;;;;;;31.45;29.48;94349.78;1650843;85;21850;-65
2022/07/15 11:52:05;;;;;;;5.40;1.70;;;;;;;30.97;30.26;94344.56;1654525;83;21421;-62
2022/07/15 11:54:35;;;;;;;6.25;1.12;;;;;;;30.36;31.04;94344.52;1663637;85;21059;-62